createdAt,value
2022-11-16T00:01:49.438Z,8.30
2022-11-16T00:04:16.921Z,8.30
2022-11-16T00:06:45.900Z,8.30
2022-11-16T00:09:22.353Z,8.30
2022-11-16T00:11:52.505Z,8.20
2022-11-16T00:14:21.823Z,8.10
2022-11-16T00:16:49.613Z,8.10
2022-11-16T00:19:17.380Z,8.10
2022-11-16T00:21:45.031Z,8.10
2022-11-16T00:24:14.759Z,8.00
2022-11-16T00:26:42.397Z,8.00
2022-11-16T00:29:21.742Z,7.90
2022-11-16T00:31:50.192Z,7.80
2022-11-16T00:34:18.475Z,7.80
2022-11-16T00:36:46.282Z,7.90
2022-11-16T00:39:15.536Z,7.90
2022-11-16T00:41:43.913Z,8.00
2022-11-16T00:44:12.004Z,8.00
2022-11-16T00:46:39.605Z,8.10
2022-11-16T00:49:07.774Z,8.20
2022-11-16T00:51:36.774Z,8.30
2022-11-16T00:54:05.822Z,8.40
2022-11-16T00:56:36.313Z,8.40
2022-11-16T00:59:04.816Z,8.50
2022-11-16T01:01:33.240Z,8.50
2022-11-16T01:04:01.171Z,8.50
2022-11-16T01:06:28.545Z,8.50
2022-11-16T01:08:55.989Z,8.40
2022-11-16T01:11:43.107Z,8.40
2022-11-16T01:14:11.094Z,8.30
2022-11-16T01:16:38.580Z,8.30
2022-11-16T01:19:06.346Z,8.50
2022-11-16T01:21:34.031Z,8.10
2022-11-16T01:24:01.789Z,8.00
2022-11-16T01:26:29.688Z,7.90
2022-11-16T01:28:59.609Z,7.80
2022-11-16T01:31:30.449Z,7.80
2022-11-16T01:33:58.733Z,7.70
2022-11-16T01:36:29.444Z,7.60
2022-11-16T01:38:59.388Z,7.60
2022-11-16T01:41:31.056Z,7.50
2022-11-16T01:44:25.615Z,7.50
2022-11-16T01:46:57.111Z,7.40
2022-11-16T01:49:28.216Z,7.40
2022-11-16T01:52:03.026Z,7.40
2022-11-16T01:54:41.682Z,7.40
2022-11-16T01:57:13.911Z,7.40
2022-11-16T01:59:51.077Z,7.50
2022-11-16T02:02:20.982Z,7.50
2022-11-16T02:04:50.029Z,7.40
2022-11-16T02:08:01.493Z,7.50
2022-11-16T02:11:12.641Z,7.60
2022-11-16T02:13:55.318Z,7.70
2022-11-16T02:16:51.772Z,7.70
2022-11-16T02:19:40.893Z,7.70
2022-11-16T02:22:27.027Z,7.70
2022-11-16T02:24:57.177Z,7.60
2022-11-16T02:27:58.904Z,7.70
2022-11-16T02:30:26.497Z,7.70
2022-11-16T02:33:09.110Z,7.80
2022-11-16T02:35:48.036Z,7.80
2022-11-16T02:38:21.451Z,7.90
2022-11-16T02:41:05.140Z,8.00
2022-11-16T02:43:43.575Z,8.10
2022-11-16T02:46:29.935Z,8.20
2022-11-16T02:49:00.930Z,8.30
2022-11-16T02:51:30.389Z,8.40
2022-11-16T02:54:12.627Z,8.40
2022-11-16T02:56:52.674Z,8.50
2022-11-16T02:59:29.444Z,8.50
2022-11-16T03:02:10.998Z,8.40
2022-11-16T03:04:49.810Z,8.40
2022-11-16T03:07:22.149Z,8.40
2022-11-16T03:09:52.051Z,8.20
2022-11-16T03:12:25.470Z,8.20
2022-11-16T03:15:00.020Z,8.20
2022-11-16T03:17:30.525Z,8.00
2022-11-16T03:20:12.988Z,8.00
2022-11-16T03:22:42.914Z,8.00
2022-11-16T03:25:12.630Z,8.00
2022-11-16T03:27:48.958Z,8.00
2022-11-16T03:30:25.445Z,8.00
2022-11-16T03:33:03.362Z,8.00
2022-11-16T03:35:41.564Z,8.10
2022-11-16T03:38:11.971Z,8.10
2022-11-16T03:40:46.457Z,8.20
2022-11-16T03:43:17.592Z,8.20
2022-11-16T03:45:46.827Z,8.30
2022-11-16T03:48:14.266Z,8.30
2022-11-16T03:50:43.686Z,8.30
2022-11-16T03:53:11.593Z,8.40
2022-11-16T03:55:39.832Z,8.30
2022-11-16T03:58:07.687Z,8.50
2022-11-16T04:00:35.170Z,8.50
2022-11-16T04:03:08.705Z,8.50
2022-11-16T04:05:54.750Z,8.50
2022-11-16T04:08:40.914Z,8.50
2022-11-16T04:11:35.247Z,8.50
2022-11-16T04:14:21.246Z,8.60
2022-11-16T04:17:07.110Z,8.60
2022-11-16T04:19:57.962Z,8.60
2022-11-16T04:22:51.987Z,8.60
2022-11-16T04:25:24.890Z,8.60
2022-11-16T04:28:12.966Z,8.60
2022-11-16T04:31:15.284Z,8.60
2022-11-16T04:34:08.894Z,8.50
2022-11-16T04:36:55.163Z,8.50
2022-11-16T04:39:22.576Z,8.50
2022-11-16T04:42:08.646Z,8.50
2022-11-16T04:44:54.947Z,8.50
2022-11-16T04:47:25.537Z,8.50
2022-11-16T04:49:52.926Z,8.50
2022-11-16T04:52:21.542Z,8.50
2022-11-16T04:54:49.237Z,8.50
2022-11-16T04:57:17.757Z,8.60
2022-11-16T04:59:46.710Z,8.50
2022-11-16T05:02:15.182Z,8.50
2022-11-16T05:04:48.387Z,8.50
2022-11-16T05:07:16.926Z,8.50
2022-11-16T05:09:47.776Z,8.40
2022-11-16T05:12:21.579Z,8.40
2022-11-16T05:14:54.894Z,8.40
2022-11-16T05:17:25.018Z,8.50
2022-11-16T05:20:11.006Z,8.30
2022-11-16T05:22:54.037Z,8.20
2022-11-16T05:25:22.101Z,8.10
2022-11-16T05:27:50.003Z,8.10
2022-11-16T05:30:18.101Z,8.00
2022-11-16T05:32:45.633Z,8.80
2022-11-16T05:35:14.473Z,8.00
2022-11-16T05:37:43.213Z,8.00
2022-11-16T05:40:11.348Z,8.00
2022-11-16T05:42:48.371Z,7.90
2022-11-16T05:45:20.765Z,7.90
2022-11-16T05:47:49.148Z,7.80
2022-11-16T05:50:17.322Z,7.80
2022-11-16T05:52:52.188Z,7.80
2022-11-16T05:55:19.696Z,7.80
2022-11-16T05:57:47.414Z,7.80
2022-11-16T06:00:15.446Z,7.80
2022-11-16T06:02:43.006Z,7.80
2022-11-16T06:05:19.988Z,7.80
2022-11-16T06:07:48.334Z,7.90
2022-11-16T06:10:16.405Z,7.90
2022-11-16T06:12:46.588Z,8.00
2022-11-16T06:15:14.081Z,8.10
2022-11-16T06:17:41.491Z,8.50
2022-11-16T06:20:10.900Z,8.20
2022-11-16T06:22:39.008Z,8.20
2022-11-16T06:25:08.115Z,8.40
2022-11-16T06:27:44.160Z,8.20
2022-11-16T06:30:15.380Z,8.30
2022-11-16T06:32:42.856Z,8.30
2022-11-16T06:35:10.996Z,8.30
2022-11-16T06:37:39.581Z,8.40
2022-11-16T06:40:09.402Z,8.40
2022-11-16T06:42:41.789Z,8.40
2022-11-16T06:45:11.474Z,8.40
2022-11-16T06:47:42.776Z,8.50
2022-11-16T06:50:10.518Z,8.50
2022-11-16T06:52:39.184Z,8.50
2022-11-16T06:55:07.849Z,8.50
2022-11-16T06:57:36.906Z,8.50
2022-11-16T07:00:06.843Z,8.50
2022-11-16T07:02:37.759Z,8.50
2022-11-16T07:05:07.307Z,8.50
2022-11-16T07:07:34.823Z,8.50
2022-11-16T07:10:03.470Z,8.50
2022-11-16T07:12:32.055Z,8.50
2022-11-16T07:15:00.864Z,8.60
2022-11-16T07:17:30.817Z,8.50
2022-11-16T07:19:59.005Z,8.40
2022-11-16T07:22:26.718Z,8.80
2022-11-16T07:24:54.561Z,9.20
2022-11-16T07:27:22.743Z,8.40
2022-11-16T07:29:51.832Z,8.40
2022-11-16T07:32:39.885Z,8.30
2022-11-16T07:35:20.038Z,9.00
2022-11-16T07:37:47.687Z,8.30
2022-11-16T07:40:16.254Z,8.30
2022-11-16T07:42:45.792Z,8.40
2022-11-16T07:45:27.138Z,8.40
2022-11-16T07:47:59.030Z,8.40
2022-11-16T07:50:46.402Z,8.50
2022-11-16T07:53:14.225Z,8.50
2022-11-16T07:55:41.619Z,9.40
2022-11-16T07:58:10.030Z,8.50
2022-11-16T08:00:38.200Z,8.80
2022-11-16T08:03:14.521Z,8.60
2022-11-16T08:05:42.406Z,8.80
2022-11-16T08:08:10.115Z,8.60
2022-11-16T08:10:38.985Z,8.60
2022-11-16T08:13:06.414Z,9.90
2022-11-16T08:15:34.598Z,9.70
2022-11-16T08:18:05.275Z,8.70
2022-11-16T08:20:34.820Z,8.70
2022-11-16T08:23:02.356Z,9.10
2022-11-16T08:25:33.860Z,8.70
2022-11-16T08:28:01.455Z,8.80
2022-11-16T08:30:29.965Z,8.80
2022-11-16T08:32:57.910Z,8.90
2022-11-16T08:35:26.132Z,8.90
2022-11-16T08:37:53.568Z,8.90
2022-11-16T08:40:21.068Z,8.90
2022-11-16T08:42:49.167Z,9.30
2022-11-16T08:45:17.762Z,9.00
2022-11-16T08:47:45.647Z,9.00
2022-11-16T08:50:13.156Z,9.50
2022-11-16T08:52:40.831Z,9.00
2022-11-16T08:55:08.773Z,9.10
2022-11-16T08:57:37.475Z,9.10
2022-11-16T09:00:11.169Z,9.10
2022-11-16T09:02:38.996Z,9.20
2022-11-16T09:05:07.994Z,9.20
2022-11-16T09:07:35.436Z,9.20
2022-11-16T09:10:03.091Z,10.30
2022-11-16T09:12:30.503Z,9.20
2022-11-16T09:14:57.915Z,9.10
2022-11-16T09:17:25.317Z,9.20
2022-11-16T09:19:52.831Z,9.20
2022-11-16T09:22:20.194Z,9.20
2022-11-16T09:24:47.695Z,9.20
2022-11-16T09:27:15.419Z,9.20
2022-11-16T09:29:42.954Z,9.30
2022-11-16T09:32:10.450Z,9.30
2022-11-16T09:34:37.949Z,9.40
2022-11-16T09:37:05.477Z,9.50
2022-11-16T09:39:34.355Z,9.60
2022-11-16T09:42:16.833Z,9.60
2022-11-16T09:44:56.065Z,9.70
2022-11-16T09:48:08.621Z,9.70
2022-11-16T09:50:43.353Z,9.80
2022-11-16T09:53:32.150Z,9.80
2022-11-16T09:56:07.211Z,9.80
2022-11-16T09:58:55.508Z,9.80
2022-11-16T10:01:46.650Z,9.70
2022-11-16T10:04:39.220Z,9.70
2022-11-16T10:07:15.712Z,11.20
2022-11-16T10:09:45.176Z,9.60
2022-11-16T10:12:24.670Z,9.50
2022-11-16T10:15:11.620Z,9.40
2022-11-16T10:17:51.441Z,9.40
2022-11-16T10:20:57.186Z,9.40
2022-11-16T10:23:49.855Z,9.40
2022-11-16T10:26:36.127Z,9.40
2022-11-16T10:29:33.737Z,9.40
2022-11-16T10:32:22.403Z,9.30
2022-11-16T10:34:53.997Z,9.40
2022-11-16T10:37:22.586Z,9.40
2022-11-16T10:39:53.342Z,9.60
2022-11-16T10:42:31.996Z,9.60
2022-11-16T10:45:11.548Z,9.40
2022-11-16T10:48:01.476Z,9.50
2022-11-16T10:50:42.222Z,9.70
2022-11-16T10:53:27.590Z,9.70
2022-11-16T10:56:30.110Z,9.80
2022-11-16T10:59:08.199Z,9.90
2022-11-16T11:01:57.792Z,10.10
2022-11-16T11:04:30.431Z,10.20
2022-11-16T11:07:21.806Z,10.50
2022-11-16T11:09:53.301Z,10.60
2022-11-16T11:12:40.542Z,10.80
2022-11-16T11:15:10.831Z,10.90
2022-11-16T11:17:43.644Z,10.80
2022-11-16T11:20:17.512Z,10.70
2022-11-16T11:22:56.914Z,11.30
2022-11-16T11:25:34.339Z,10.80
2022-11-16T11:28:10.707Z,10.60
2022-11-16T11:30:39.670Z,10.50
2022-11-16T11:33:12.312Z,10.30
2022-11-16T11:35:39.799Z,10.20
2022-11-16T11:38:08.260Z,10.20
2022-11-16T11:40:36.130Z,10.50
2022-11-16T11:43:06.180Z,10.10
2022-11-16T11:45:48.467Z,10.20
2022-11-16T11:48:41.217Z,10.20
2022-11-16T11:51:25.957Z,10.20
2022-11-16T11:53:56.329Z,10.20
2022-11-16T11:56:25.880Z,10.70
2022-11-16T11:58:54.623Z,10.20
2022-11-16T12:01:40.370Z,10.20
2022-11-16T12:04:25.301Z,10.10
2022-11-16T12:07:05.152Z,10.10
2022-11-16T12:09:52.369Z,10.10
2022-11-16T12:12:47.280Z,10.20
2022-11-16T12:15:26.729Z,10.30
2022-11-16T12:18:03.195Z,10.40
2022-11-16T12:20:45.426Z,10.50
2022-11-16T12:23:43.629Z,10.40
2022-11-16T12:26:54.439Z,10.40
2022-11-16T12:29:30.510Z,10.40
2022-11-16T12:32:04.145Z,10.40
2022-11-16T12:34:46.890Z,10.40
2022-11-16T12:37:20.779Z,10.40
2022-11-16T12:40:27.918Z,10.60
2022-11-16T12:43:33.975Z,10.50
2022-11-16T12:46:31.595Z,10.60
2022-11-16T12:49:24.272Z,10.70
2022-11-16T12:52:04.934Z,10.80
2022-11-16T12:54:52.506Z,11.00
2022-11-16T12:57:47.648Z,11.20
2022-11-16T13:00:18.618Z,11.30
2022-11-16T13:03:10.503Z,11.40
2022-11-16T13:05:46.844Z,11.40
2022-11-16T13:08:44.986Z,11.40
2022-11-16T13:11:31.990Z,11.40
2022-11-16T13:14:12.770Z,11.40
2022-11-16T13:16:40.690Z,11.40
2022-11-16T13:19:14.398Z,11.40
2022-11-16T13:22:18.015Z,11.40
2022-11-16T13:24:58.849Z,11.40
2022-11-16T13:27:36.076Z,11.40
2022-11-16T13:30:21.382Z,11.40
2022-11-16T13:33:21.185Z,11.40
2022-11-16T13:35:48.602Z,11.40
2022-11-16T13:38:52.382Z,11.40
2022-11-16T13:41:31.821Z,11.50
2022-11-16T13:44:00.359Z,11.50
2022-11-16T13:46:55.162Z,11.50
2022-11-16T13:49:29.514Z,11.50
2022-11-16T13:52:16.843Z,11.40
2022-11-16T13:54:53.677Z,11.40
2022-11-16T13:57:23.999Z,11.30
2022-11-16T14:00:04.919Z,11.30
2022-11-16T14:02:37.291Z,11.30
2022-11-16T14:05:12.616Z,11.30
2022-11-16T14:07:47.085Z,11.20
2022-11-16T14:10:44.774Z,11.20
2022-11-16T14:13:42.266Z,11.20
2022-11-16T14:16:21.505Z,11.20
2022-11-16T14:18:53.851Z,11.20
2022-11-16T14:21:48.887Z,11.20
2022-11-16T14:24:42.410Z,11.20
2022-11-16T14:27:17.335Z,11.20
2022-11-16T14:30:03.402Z,11.10
2022-11-16T14:32:45.693Z,11.20
2022-11-16T14:35:36.544Z,11.10
2022-11-16T14:38:07.402Z,11.10
2022-11-16T14:40:47.279Z,11.00
2022-11-16T14:43:29.664Z,11.00
2022-11-16T14:46:05.212Z,11.00
2022-11-16T14:48:33.170Z,11.30
2022-11-16T14:51:08.364Z,11.10
2022-11-16T14:53:40.532Z,10.90
2022-11-16T14:56:13.793Z,10.90
2022-11-16T14:59:01.185Z,10.90
2022-11-16T15:01:38.976Z,10.80
2022-11-16T15:04:09.324Z,10.90
2022-11-16T15:06:49.305Z,11.40
2022-11-16T15:09:28.058Z,10.70
2022-11-16T15:12:15.994Z,10.70
2022-11-16T15:14:48.283Z,10.60
2022-11-16T15:17:18.767Z,10.60
2022-11-16T15:20:00.083Z,10.60
2022-11-16T15:22:30.975Z,10.60
2022-11-16T15:25:00.518Z,10.50
2022-11-16T15:27:34.483Z,10.50
2022-11-16T15:30:14.161Z,10.50
2022-11-16T15:32:47.583Z,10.40
2022-11-16T15:35:22.065Z,10.40
2022-11-16T15:38:04.783Z,10.40
2022-11-16T15:40:34.213Z,11.10
2022-11-16T15:43:05.504Z,10.40
2022-11-16T15:45:34.021Z,11.20
2022-11-16T15:48:03.391Z,10.40
2022-11-16T15:50:31.295Z,10.40
2022-11-16T15:52:59.825Z,10.40
2022-11-16T15:55:32.161Z,8.70
2022-11-16T15:58:05.728Z,10.40
2022-11-16T16:00:36.475Z,10.40
2022-11-16T16:03:19.002Z,10.40
2022-11-16T16:05:46.614Z,10.40
2022-11-16T16:08:35.254Z,10.40
2022-11-16T16:11:16.475Z,10.60
2022-11-16T16:14:00.734Z,10.30
2022-11-16T16:16:36.825Z,10.30
2022-11-16T16:19:10.073Z,10.60
2022-11-16T16:21:43.892Z,10.30
2022-11-16T16:24:38.109Z,10.30
2022-11-16T16:27:15.126Z,10.30
2022-11-16T16:29:43.170Z,10.30
2022-11-16T16:32:15.998Z,10.20
2022-11-16T16:34:43.581Z,10.20
2022-11-16T16:37:11.959Z,10.40
2022-11-16T16:39:39.886Z,11.00
2022-11-16T16:42:13.594Z,10.90
2022-11-16T16:44:42.709Z,10.90
2022-11-16T16:47:10.384Z,10.20
2022-11-16T16:49:37.959Z,10.30
2022-11-16T16:52:06.713Z,10.20
2022-11-16T16:54:34.350Z,10.20
2022-11-16T16:57:02.440Z,10.30
2022-11-16T16:59:30.274Z,10.30
2022-11-16T17:01:59.129Z,10.80
2022-11-16T17:04:26.843Z,10.30
2022-11-16T17:06:54.564Z,11.20
2022-11-16T17:09:22.056Z,10.40
2022-11-16T17:11:49.491Z,10.40
2022-11-16T17:14:18.266Z,10.40
2022-11-16T17:16:45.661Z,11.30
2022-11-16T17:19:13.985Z,10.60
2022-11-16T17:21:41.419Z,10.90
2022-11-16T17:24:09.417Z,10.40
2022-11-16T17:26:36.839Z,10.40
2022-11-16T17:29:04.396Z,10.50
2022-11-16T17:31:31.858Z,10.40
2022-11-16T17:33:59.524Z,11.30
2022-11-16T17:36:26.934Z,10.40
2022-11-16T17:38:54.301Z,10.40
2022-11-16T17:41:22.225Z,11.10
2022-11-16T17:43:53.059Z,11.20
2022-11-16T17:46:23.383Z,10.30
2022-11-16T17:48:51.468Z,10.20
2022-11-16T17:51:21.526Z,10.20
2022-11-16T17:53:49.811Z,10.20
2022-11-16T17:56:22.902Z,10.20
2022-11-16T17:58:52.087Z,10.20
2022-11-16T18:01:19.616Z,10.30
2022-11-16T18:03:47.718Z,10.30
2022-11-16T18:06:23.001Z,10.20
2022-11-16T18:08:50.909Z,10.20
2022-11-16T18:11:24.402Z,10.10
2022-11-16T18:13:56.010Z,10.20
2022-11-16T18:16:26.241Z,10.20
2022-11-16T18:19:01.705Z,10.20
2022-11-16T18:21:29.962Z,10.10
2022-11-16T18:24:00.653Z,10.20
2022-11-16T18:26:27.991Z,10.10
2022-11-16T18:28:55.393Z,10.10
2022-11-16T18:31:24.689Z,10.90
2022-11-16T18:33:52.546Z,10.10
2022-11-16T18:36:21.207Z,10.10
2022-11-16T18:38:49.245Z,10.10
2022-11-16T18:41:22.380Z,10.00
2022-11-16T18:43:55.400Z,10.10
2022-11-16T18:46:26.280Z,10.10
2022-11-16T18:48:53.861Z,10.00
2022-11-16T18:51:22.484Z,10.00
2022-11-16T18:53:50.703Z,10.20
2022-11-16T18:56:18.473Z,10.00
2022-11-16T18:58:51.388Z,10.10
2022-11-16T19:01:22.405Z,10.00
2022-11-16T19:03:50.960Z,9.90
2022-11-16T19:06:18.843Z,9.90
2022-11-16T19:08:52.115Z,10.10
2022-11-16T19:11:21.288Z,9.90
2022-11-16T19:13:54.897Z,9.90
2022-11-16T19:16:23.457Z,9.80
2022-11-16T19:18:50.861Z,9.80
2022-11-16T19:21:18.909Z,9.90
2022-11-16T19:23:48.569Z,9.80
2022-11-16T19:26:19.139Z,9.80
2022-11-16T19:28:48.615Z,9.80
2022-11-16T19:31:20.303Z,9.80
2022-11-16T19:33:48.103Z,9.80
2022-11-16T19:36:18.156Z,10.30
2022-11-16T19:38:47.537Z,10.70
2022-11-16T19:41:16.561Z,9.90
2022-11-16T19:43:44.211Z,9.90
2022-11-16T19:46:16.430Z,10.10
2022-11-16T19:48:45.833Z,10.10
2022-11-16T19:51:16.342Z,9.90
2022-11-16T19:53:43.944Z,9.90
2022-11-16T19:56:13.044Z,10.00
2022-11-16T19:58:40.973Z,10.00
2022-11-16T20:01:20.424Z,9.90
2022-11-16T20:03:49.306Z,9.90
2022-11-16T20:06:22.207Z,9.90
2022-11-16T20:08:55.808Z,10.20
2022-11-16T20:11:31.546Z,9.90
2022-11-16T20:13:59.182Z,9.80
2022-11-16T20:16:31.603Z,9.90
2022-11-16T20:19:01.788Z,9.80
2022-11-16T20:21:35.129Z,9.80
2022-11-16T20:24:06.793Z,9.70
2022-11-16T20:26:36.826Z,9.80
2022-11-16T20:29:04.285Z,9.80
2022-11-16T20:31:33.378Z,9.80
2022-11-16T20:34:04.308Z,9.80
2022-11-16T20:36:33.353Z,9.80
2022-11-16T20:39:00.923Z,9.80
2022-11-16T20:41:33.117Z,9.80
2022-11-16T20:44:01.788Z,10.00
2022-11-16T20:46:32.021Z,9.80
2022-11-16T20:49:01.640Z,9.80
2022-11-16T20:51:29.959Z,10.00
2022-11-16T20:53:57.889Z,9.70
2022-11-16T20:56:25.618Z,9.80
2022-11-16T20:58:53.189Z,10.00
2022-11-16T21:01:28.877Z,10.10
2022-11-16T21:03:57.015Z,10.00
2022-11-16T21:06:24.470Z,10.30
2022-11-16T21:08:52.187Z,9.90
2022-11-16T21:11:23.169Z,10.00
2022-11-16T21:14:09.252Z,10.10
2022-11-16T21:16:37.193Z,10.80
2022-11-16T21:19:05.404Z,10.20
2022-11-16T21:21:33.327Z,10.30
2022-11-16T21:24:00.834Z,10.30
2022-11-16T21:26:31.212Z,10.40
2022-11-16T21:29:00.111Z,10.40
2022-11-16T21:31:29.938Z,10.40
2022-11-16T21:34:00.585Z,10.40
2022-11-16T21:36:31.215Z,10.40
2022-11-16T21:38:59.034Z,10.40
2022-11-16T21:41:26.852Z,10.40
2022-11-16T21:43:54.524Z,10.40
2022-11-16T21:46:24.821Z,10.40
2022-11-16T21:48:54.256Z,10.40
2022-11-16T21:51:24.738Z,10.80
2022-11-16T21:53:52.326Z,10.40
2022-11-16T21:56:22.829Z,10.40
2022-11-16T21:58:52.652Z,10.60
2022-11-16T22:01:21.114Z,10.30
2022-11-16T22:04:08.536Z,10.40
2022-11-16T22:06:54.789Z,10.40
2022-11-16T22:09:22.362Z,10.90
2022-11-16T22:11:49.825Z,10.40
2022-11-16T22:14:17.228Z,10.40
2022-11-16T22:16:44.578Z,10.60
2022-11-16T22:19:12.190Z,10.40
2022-11-16T22:21:39.568Z,10.60
2022-11-16T22:24:07.350Z,11.30
2022-11-16T22:26:35.039Z,10.50
2022-11-16T22:29:02.406Z,10.90
2022-11-16T22:31:29.860Z,10.50
2022-11-16T22:33:57.453Z,10.50
2022-11-16T22:36:24.804Z,10.50
2022-11-16T22:38:52.226Z,10.60
2022-11-16T22:41:20.708Z,10.60
2022-11-16T22:43:48.100Z,10.60
2022-11-16T22:46:15.508Z,10.70
2022-11-16T22:48:43.626Z,10.70
2022-11-16T22:51:18.189Z,10.80
2022-11-16T22:53:45.853Z,10.70
2022-11-16T22:56:13.941Z,10.80
2022-11-16T22:58:41.389Z,10.80
2022-11-16T23:01:09.514Z,10.80
2022-11-16T23:03:37.679Z,10.80
2022-11-16T23:06:06.425Z,11.10
2022-11-16T23:08:34.993Z,10.90
2022-11-16T23:11:28.967Z,10.90
2022-11-16T23:14:15.745Z,10.80
2022-11-16T23:16:43.866Z,10.80
2022-11-16T23:19:32.632Z,10.80
2022-11-16T23:22:18.596Z,10.80
2022-11-16T23:25:04.613Z,10.80
2022-11-16T23:27:50.590Z,10.80
2022-11-16T23:30:18.242Z,11.30
2022-11-16T23:32:45.668Z,10.90
2022-11-16T23:35:13.784Z,10.90
2022-11-16T23:38:16.440Z,10.90
2022-11-16T23:40:43.944Z,11.40
2022-11-16T23:43:29.933Z,11.00
2022-11-16T23:45:57.489Z,11.00
2022-11-16T23:48:24.918Z,10.90
2022-11-16T23:50:52.311Z,11.00
2022-11-16T23:53:19.781Z,10.90
2022-11-16T23:55:47.585Z,11.00
2022-11-16T23:58:15.404Z,11.10
